Spa/La Sauveniere, Belgium
Current Conditions -  °F | °C
As of 8:25 AM on Thursday 23 Oct 2014 (Local Time) from EBLB Reporting Station
Haze Haze  
Wind Chill:   Ceiling: 300
Heat Index:   Visibility: 1.9mi
Dew Point:   Wind: 3mph
Humidity: 100%   Direction: 240°WSW
Pressure: 30.21"   Gusts: NA
Location:  50.49°N, 5.89°E
Report Text: EBLB 230625Z 24003KT 3100 BR SCT001 OVC003 05/05 Q1023 RED
Loading
Personal Weather Stations






























Interactive Weather Map
Tropical Storm Tracking
New forecast layout! Learn more

10-Day Weather Forecast

Advertisements
Track Severe Weather on mobile